sensor_id;sensor_type;location;lat;lon;timestamp;temperature;humidity
22544;DHT22;11438;52.044;8.716;2024-03-22T00:01:44;13.30;98.70
22544;DHT22;11438;52.044;8.716;2024-03-22T00:04:10;13.40;98.80
22544;DHT22;11438;52.044;8.716;2024-03-22T00:06:36;13.40;98.80
22544;DHT22;11438;52.044;8.716;2024-03-22T00:09:01;13.30;98.90
22544;DHT22;11438;52.044;8.716;2024-03-22T00:11:27;13.30;99.00
22544;DHT22;11438;52.044;8.716;2024-03-22T00:13:52;13.40;98.90
22544;DHT22;11438;52.044;8.716;2024-03-22T00:16:18;13.30;98.90
22544;DHT22;11438;52.044;8.716;2024-03-22T00:18:43;13.30;99.00
22544;DHT22;11438;52.044;8.716;2024-03-22T00:21:09;13.30;99.00
22544;DHT22;11438;52.044;8.716;2024-03-22T00:23:34;13.30;99.00
22544;DHT22;11438;52.044;8.716;2024-03-22T00:26:00;13.30;99.10
22544;DHT22;11438;52.044;8.716;2024-03-22T00:28:25;13.40;99.10
22544;DHT22;11438;52.044;8.716;2024-03-22T00:30:51;13.40;99.20
22544;DHT22;11438;52.044;8.716;2024-03-22T00:33:16;13.40;99.20
22544;DHT22;11438;52.044;8.716;2024-03-22T00:35:42;13.40;99.20
22544;DHT22;11438;52.044;8.716;2024-03-22T00:38:07;13.40;99.20
22544;DHT22;11438;52.044;8.716;2024-03-22T00:40:33;13.40;99.20
22544;DHT22;11438;52.044;8.716;2024-03-22T00:42:59;13.40;99.30
22544;DHT22;11438;52.044;8.716;2024-03-22T00:45:24;13.40;99.30
22544;DHT22;11438;52.044;8.716;2024-03-22T00:47:50;13.50;99.30
22544;DHT22;11438;52.044;8.716;2024-03-22T00:50:15;13.50;99.30
22544;DHT22;11438;52.044;8.716;2024-03-22T00:52:41;13.50;99.30
22544;DHT22;11438;52.044;8.716;2024-03-22T00:55:07;13.50;99.30
22544;DHT22;11438;52.044;8.716;2024-03-22T00:57:32;13.50;99.30
22544;DHT22;11438;52.044;8.716;2024-03-22T00:59:58;13.50;99.40
22544;DHT22;11438;52.044;8.716;2024-03-22T01:02:23;13.50;99.40
22544;DHT22;11438;52.044;8.716;2024-03-22T01:04:49;13.50;99.40
22544;DHT22;11438;52.044;8.716;2024-03-22T01:07:15;13.50;99.40
22544;DHT22;11438;52.044;8.716;2024-03-22T01:09:40;13.50;99.40
22544;DHT22;11438;52.044;8.716;2024-03-22T01:12:06;13.60;99.50
22544;DHT22;11438;52.044;8.716;2024-03-22T01:14:31;13.50;99.50
22544;DHT22;11438;52.044;8.716;2024-03-22T01:16:57;13.60;99.50
22544;DHT22;11438;52.044;8.716;2024-03-22T01:19:22;13.50;99.50
22544;DHT22;11438;52.044;8.716;2024-03-22T01:21:48;13.60;99.50
22544;DHT22;11438;52.044;8.716;2024-03-22T01:24:14;13.60;99.60
22544;DHT22;11438;52.044;8.716;2024-03-22T01:26:39;13.60;99.60
22544;DHT22;11438;52.044;8.716;2024-03-22T01:29:05;13.60;99.60
22544;DHT22;11438;52.044;8.716;2024-03-22T01:31:30;13.60;99.70
22544;DHT22;11438;52.044;8.716;2024-03-22T01:33:56;13.60;99.70
22544;DHT22;11438;52.044;8.716;2024-03-22T01:36:21;13.60;99.70
22544;DHT22;11438;52.044;8.716;2024-03-22T01:38:47;13.60;99.70
22544;DHT22;11438;52.044;8.716;2024-03-22T01:41:12;13.60;99.70
22544;DHT22;11438;52.044;8.716;2024-03-22T01:43:38;13.60;99.70
22544;DHT22;11438;52.044;8.716;2024-03-22T01:46:04;13.60;99.80
22544;DHT22;11438;52.044;8.716;2024-03-22T01:48:31;13.60;99.80
22544;DHT22;11438;52.044;8.716;2024-03-22T01:50:57;13.60;99.80
22544;DHT22;11438;52.044;8.716;2024-03-22T01:53:23;13.60;99.80
22544;DHT22;11438;52.044;8.716;2024-03-22T01:55:48;13.60;99.80
22544;DHT22;11438;52.044;8.716;2024-03-22T01:58:14;13.70;99.90
22544;DHT22;11438;52.044;8.716;2024-03-22T02:00:40;13.70;99.90
22544;DHT22;11438;52.044;8.716;2024-03-22T02:03:05;13.70;99.90
22544;DHT22;11438;52.044;8.716;2024-03-22T02:05:31;13.70;99.90
22544;DHT22;11438;52.044;8.716;2024-03-22T02:07:57;13.70;99.90
22544;DHT22;11438;52.044;8.716;2024-03-22T02:10:22;13.70;99.90
22544;DHT22;11438;52.044;8.716;2024-03-22T02:12:48;13.70;99.90
22544;DHT22;11438;52.044;8.716;2024-03-22T02:15:13;13.70;99.90
22544;DHT22;11438;52.044;8.716;2024-03-22T02:17:39;13.70;99.90
22544;DHT22;11438;52.044;8.716;2024-03-22T02:20:05;13.70;99.90
22544;DHT22;11438;52.044;8.716;2024-03-22T02:22:31;13.70;99.90
22544;DHT22;11438;52.044;8.716;2024-03-22T02:24:57;13.70;99.90
22544;DHT22;11438;52.044;8.716;2024-03-22T02:27:22;13.80;99.90
22544;DHT22;11438;52.044;8.716;2024-03-22T02:29:48;13.80;99.90
22544;DHT22;11438;52.044;8.716;2024-03-22T02:32:13;13.70;99.90
22544;DHT22;11438;52.044;8.716;2024-03-22T02:34:39;13.70;99.90
22544;DHT22;11438;52.044;8.716;2024-03-22T02:37:04;13.70;99.90
22544;DHT22;11438;52.044;8.716;2024-03-22T02:39:30;13.70;99.90
22544;DHT22;11438;52.044;8.716;2024-03-22T02:41:56;13.80;99.90
22544;DHT22;11438;52.044;8.716;2024-03-22T02:44:21;13.70;99.90
22544;DHT22;11438;52.044;8.716;2024-03-22T02:46:47;13.70;99.90
22544;DHT22;11438;52.044;8.716;2024-03-22T02:49:12;13.70;99.90
22544;DHT22;11438;52.044;8.716;2024-03-22T02:51:38;13.70;99.90
22544;DHT22;11438;52.044;8.716;2024-03-22T02:54:04;13.70;99.90
22544;DHT22;11438;52.044;8.716;2024-03-22T02:56:30;13.70;99.90
22544;DHT22;11438;52.044;8.716;2024-03-22T02:58:55;13.70;99.90
22544;DHT22;11438;52.044;8.716;2024-03-22T03:01:21;13.70;99.90
22544;DHT22;11438;52.044;8.716;2024-03-22T03:03:46;13.70;99.90
22544;DHT22;11438;52.044;8.716;2024-03-22T03:06:12;13.70;99.90
22544;DHT22;11438;52.044;8.716;2024-03-22T03:08:39;13.70;99.90
22544;DHT22;11438;52.044;8.716;2024-03-22T03:11:04;13.70;99.90
22544;DHT22;11438;52.044;8.716;2024-03-22T03:13:30;13.70;99.90
22544;DHT22;11438;52.044;8.716;2024-03-22T03:15:57;13.70;99.90
22544;DHT22;11438;52.044;8.716;2024-03-22T03:18:22;13.70;99.90
22544;DHT22;11438;52.044;8.716;2024-03-22T03:20:48;13.70;99.90
22544;DHT22;11438;52.044;8.716;2024-03-22T03:23:13;13.70;99.90
22544;DHT22;11438;52.044;8.716;2024-03-22T03:25:39;13.70;99.90
22544;DHT22;11438;52.044;8.716;2024-03-22T03:28:04;13.70;99.90
22544;DHT22;11438;52.044;8.716;2024-03-22T03:30:31;13.70;99.90
22544;DHT22;11438;52.044;8.716;2024-03-22T03:32:57;13.70;99.90
22544;DHT22;11438;52.044;8.716;2024-03-22T03:35:22;13.70;99.90
22544;DHT22;11438;52.044;8.716;2024-03-22T03:37:49;13.70;99.90
22544;DHT22;11438;52.044;8.716;2024-03-22T03:40:14;13.70;99.90
22544;DHT22;11438;52.044;8.716;2024-03-22T03:42:40;13.70;99.90
22544;DHT22;11438;52.044;8.716;2024-03-22T03:45:06;13.80;99.90
22544;DHT22;11438;52.044;8.716;2024-03-22T03:47:32;13.70;99.90
22544;DHT22;11438;52.044;8.716;2024-03-22T03:49:58;13.70;99.90
22544;DHT22;11438;52.044;8.716;2024-03-22T03:52:24;13.80;99.90
22544;DHT22;11438;52.044;8.716;2024-03-22T03:54:49;13.70;99.90
22544;DHT22;11438;52.044;8.716;2024-03-22T03:57:15;13.80;99.90
22544;DHT22;11438;52.044;8.716;2024-03-22T03:59:40;13.80;99.90
22544;DHT22;11438;52.044;8.716;2024-03-22T04:02:06;13.80;99.90
22544;DHT22;11438;52.044;8.716;2024-03-22T04:04:31;13.80;99.90
22544;DHT22;11438;52.044;8.716;2024-03-22T04:06:57;13.80;99.90
22544;DHT22;11438;52.044;8.716;2024-03-22T04:09:22;13.80;99.90
22544;DHT22;11438;52.044;8.716;2024-03-22T04:11:48;13.80;99.90
22544;DHT22;11438;52.044;8.716;2024-03-22T04:14:13;13.80;99.90
22544;DHT22;11438;52.044;8.716;2024-03-22T04:16:38;13.80;99.90
22544;DHT22;11438;52.044;8.716;2024-03-22T04:19:04;13.80;99.90
22544;DHT22;11438;52.044;8.716;2024-03-22T04:21:29;13.80;99.90
22544;DHT22;11438;52.044;8.716;2024-03-22T04:23:55;13.80;99.90
22544;DHT22;11438;52.044;8.716;2024-03-22T04:26:20;13.80;99.90
22544;DHT22;11438;52.044;8.716;2024-03-22T04:28:46;13.80;99.90
22544;DHT22;11438;52.044;8.716;2024-03-22T04:31:11;13.90;99.90
22544;DHT22;11438;52.044;8.716;2024-03-22T04:33:38;13.80;99.90
22544;DHT22;11438;52.044;8.716;2024-03-22T04:36:04;13.80;99.90
22544;DHT22;11438;52.044;8.716;2024-03-22T04:38:30;13.80;99.90
22544;DHT22;11438;52.044;8.716;2024-03-22T04:40:56;13.80;99.90
22544;DHT22;11438;52.044;8.716;2024-03-22T04:43:25;13.80;99.90
22544;DHT22;11438;52.044;8.716;2024-03-22T04:45:51;13.80;99.90
22544;DHT22;11438;52.044;8.716;2024-03-22T04:48:19;13.90;99.90
22544;DHT22;11438;52.044;8.716;2024-03-22T04:50:46;13.80;99.90
22544;DHT22;11438;52.044;8.716;2024-03-22T04:53:13;13.80;99.90
22544;DHT22;11438;52.044;8.716;2024-03-22T04:55:38;13.70;99.90
22544;DHT22;11438;52.044;8.716;2024-03-22T04:58:04;13.70;99.90
22544;DHT22;11438;52.044;8.716;2024-03-22T05:00:30;13.70;99.90
22544;DHT22;11438;52.044;8.716;2024-03-22T05:02:55;13.70;99.90
22544;DHT22;11438;52.044;8.716;2024-03-22T05:05:21;13.70;99.90
22544;DHT22;11438;52.044;8.716;2024-03-22T05:07:47;13.70;99.90
22544;DHT22;11438;52.044;8.716;2024-03-22T05:10:12;13.60;99.90
22544;DHT22;11438;52.044;8.716;2024-03-22T05:12:38;13.60;99.90
22544;DHT22;11438;52.044;8.716;2024-03-22T05:15:04;13.60;99.90
22544;DHT22;11438;52.044;8.716;2024-03-22T05:17:30;13.60;99.90
22544;DHT22;11438;52.044;8.716;2024-03-22T05:20:00;13.60;99.90
22544;DHT22;11438;52.044;8.716;2024-03-22T05:22:26;13.60;99.90
22544;DHT22;11438;52.044;8.716;2024-03-22T05:24:51;13.60;99.90
22544;DHT22;11438;52.044;8.716;2024-03-22T05:27:17;13.60;99.90
22544;DHT22;11438;52.044;8.716;2024-03-22T05:29:43;13.60;99.90
22544;DHT22;11438;52.044;8.716;2024-03-22T05:32:08;13.60;99.90
22544;DHT22;11438;52.044;8.716;2024-03-22T05:34:34;13.60;99.90
22544;DHT22;11438;52.044;8.716;2024-03-22T05:37:01;13.60;99.90
22544;DHT22;11438;52.044;8.716;2024-03-22T05:39:26;13.70;99.90
22544;DHT22;11438;52.044;8.716;2024-03-22T05:41:52;13.70;99.90
22544;DHT22;11438;52.044;8.716;2024-03-22T05:44:18;13.70;99.90
22544;DHT22;11438;52.044;8.716;2024-03-22T05:46:43;13.70;99.90
22544;DHT22;11438;52.044;8.716;2024-03-22T05:49:09;13.70;99.90
22544;DHT22;11438;52.044;8.716;2024-03-22T05:51:34;13.70;99.90
22544;DHT22;11438;52.044;8.716;2024-03-22T05:54:00;13.80;99.90
22544;DHT22;11438;52.044;8.716;2024-03-22T05:56:25;13.80;99.90
22544;DHT22;11438;52.044;8.716;2024-03-22T05:58:51;13.80;99.90
22544;DHT22;11438;52.044;8.716;2024-03-22T06:01:16;13.80;99.90
22544;DHT22;11438;52.044;8.716;2024-03-22T06:03:41;13.80;99.90
22544;DHT22;11438;52.044;8.716;2024-03-22T06:06:07;13.90;99.90
22544;DHT22;11438;52.044;8.716;2024-03-22T06:08:33;13.90;99.90
22544;DHT22;11438;52.044;8.716;2024-03-22T06:11:00;13.90;99.90
22544;DHT22;11438;52.044;8.716;2024-03-22T06:13:26;13.90;99.90
22544;DHT22;11438;52.044;8.716;2024-03-22T06:15:51;13.90;99.90
22544;DHT22;11438;52.044;8.716;2024-03-22T06:18:17;14.00;99.90
22544;DHT22;11438;52.044;8.716;2024-03-22T06:20:43;14.00;99.90
22544;DHT22;11438;52.044;8.716;2024-03-22T06:23:09;14.00;99.90
22544;DHT22;11438;52.044;8.716;2024-03-22T06:25:34;14.10;99.90
22544;DHT22;11438;52.044;8.716;2024-03-22T06:28:00;14.10;99.90
22544;DHT22;11438;52.044;8.716;2024-03-22T06:30:25;14.10;99.90
22544;DHT22;11438;52.044;8.716;2024-03-22T06:32:52;14.20;99.90
22544;DHT22;11438;52.044;8.716;2024-03-22T06:35:18;14.20;99.90
22544;DHT22;11438;52.044;8.716;2024-03-22T06:37:43;14.20;99.90
22544;DHT22;11438;52.044;8.716;2024-03-22T06:40:09;14.20;99.90
22544;DHT22;11438;52.044;8.716;2024-03-22T06:42:35;14.30;99.90
22544;DHT22;11438;52.044;8.716;2024-03-22T06:45:01;14.30;99.90
22544;DHT22;11438;52.044;8.716;2024-03-22T06:47:27;14.30;99.90
22544;DHT22;11438;52.044;8.716;2024-03-22T06:49:53;14.40;99.90
22544;DHT22;11438;52.044;8.716;2024-03-22T06:52:18;14.40;99.90
22544;DHT22;11438;52.044;8.716;2024-03-22T06:54:45;14.40;99.90
22544;DHT22;11438;52.044;8.716;2024-03-22T06:57:10;14.40;99.90
22544;DHT22;11438;52.044;8.716;2024-03-22T06:59:36;14.40;99.90
22544;DHT22;11438;52.044;8.716;2024-03-22T07:02:02;14.40;99.90
22544;DHT22;11438;52.044;8.716;2024-03-22T07:04:27;14.50;99.90
22544;DHT22;11438;52.044;8.716;2024-03-22T07:06:53;14.50;99.90
22544;DHT22;11438;52.044;8.716;2024-03-22T07:09:18;14.50;99.90
22544;DHT22;11438;52.044;8.716;2024-03-22T07:11:44;14.50;99.90
22544;DHT22;11438;52.044;8.716;2024-03-22T07:14:09;14.50;99.90
22544;DHT22;11438;52.044;8.716;2024-03-22T07:16:35;14.60;99.90
22544;DHT22;11438;52.044;8.716;2024-03-22T07:19:02;14.60;99.90
22544;DHT22;11438;52.044;8.716;2024-03-22T07:21:28;14.60;99.90
22544;DHT22;11438;52.044;8.716;2024-03-22T07:23:54;14.60;99.90
22544;DHT22;11438;52.044;8.716;2024-03-22T07:26:19;14.60;99.90
22544;DHT22;11438;52.044;8.716;2024-03-22T07:28:45;14.60;99.90
22544;DHT22;11438;52.044;8.716;2024-03-22T07:31:10;14.60;99.90
22544;DHT22;11438;52.044;8.716;2024-03-22T07:33:36;14.60;99.90
22544;DHT22;11438;52.044;8.716;2024-03-22T07:36:02;14.70;99.90
22544;DHT22;11438;52.044;8.716;2024-03-22T07:38:28;14.70;99.90
22544;DHT22;11438;52.044;8.716;2024-03-22T07:40:54;14.70;99.90
22544;DHT22;11438;52.044;8.716;2024-03-22T07:43:19;14.80;99.90
22544;DHT22;11438;52.044;8.716;2024-03-22T07:45:45;14.80;99.90
22544;DHT22;11438;52.044;8.716;2024-03-22T07:48:10;14.80;99.90
22544;DHT22;11438;52.044;8.716;2024-03-22T07:50:36;14.90;99.90
22544;DHT22;11438;52.044;8.716;2024-03-22T07:53:02;14.90;99.90
22544;DHT22;11438;52.044;8.716;2024-03-22T07:55:27;14.90;99.90
22544;DHT22;11438;52.044;8.716;2024-03-22T07:57:53;14.90;99.90
22544;DHT22;11438;52.044;8.716;2024-03-22T08:00:19;15.00;99.90
22544;DHT22;11438;52.044;8.716;2024-03-22T08:02:44;15.10;99.90
22544;DHT22;11438;52.044;8.716;2024-03-22T08:05:10;15.00;99.90
22544;DHT22;11438;52.044;8.716;2024-03-22T08:07:35;15.10;99.90
22544;DHT22;11438;52.044;8.716;2024-03-22T08:10:01;15.10;99.90
22544;DHT22;11438;52.044;8.716;2024-03-22T08:12:27;15.10;99.90
22544;DHT22;11438;52.044;8.716;2024-03-22T08:14:53;15.20;99.90
22544;DHT22;11438;52.044;8.716;2024-03-22T08:17:19;15.20;99.90
22544;DHT22;11438;52.044;8.716;2024-03-22T08:19:44;15.20;99.90
22544;DHT22;11438;52.044;8.716;2024-03-22T08:22:10;15.30;99.90
22544;DHT22;11438;52.044;8.716;2024-03-22T08:24:35;15.30;99.90
22544;DHT22;11438;52.044;8.716;2024-03-22T08:27:01;15.40;99.90
22544;DHT22;11438;52.044;8.716;2024-03-22T08:29:26;15.40;99.90
22544;DHT22;11438;52.044;8.716;2024-03-22T08:31:52;15.40;99.90
22544;DHT22;11438;52.044;8.716;2024-03-22T08:34:18;15.50;99.90
22544;DHT22;11438;52.044;8.716;2024-03-22T08:36:44;15.60;99.90
22544;DHT22;11438;52.044;8.716;2024-03-22T08:39:09;15.60;99.90
22544;DHT22;11438;52.044;8.716;2024-03-22T08:41:39;15.60;99.90
22544;DHT22;11438;52.044;8.716;2024-03-22T08:44:04;15.70;99.90
22544;DHT22;11438;52.044;8.716;2024-03-22T08:46:30;15.70;99.90
22544;DHT22;11438;52.044;8.716;2024-03-22T08:48:57;15.80;99.90
22544;DHT22;11438;52.044;8.716;2024-03-22T08:51:22;15.80;99.90
22544;DHT22;11438;52.044;8.716;2024-03-22T08:53:48;15.80;99.90
22544;DHT22;11438;52.044;8.716;2024-03-22T08:56:13;15.90;99.90
22544;DHT22;11438;52.044;8.716;2024-03-22T08:58:39;15.90;99.90
22544;DHT22;11438;52.044;8.716;2024-03-22T09:01:05;16.00;99.70
22544;DHT22;11438;52.044;8.716;2024-03-22T09:03:31;16.00;99.80
22544;DHT22;11438;52.044;8.716;2024-03-22T09:05:56;16.00;99.90
22544;DHT22;11438;52.044;8.716;2024-03-22T09:08:22;16.10;99.90
22544;DHT22;11438;52.044;8.716;2024-03-22T09:10:48;16.10;99.90
22544;DHT22;11438;52.044;8.716;2024-03-22T09:13:13;16.10;99.70
22544;DHT22;11438;52.044;8.716;2024-03-22T09:15:39;16.20;99.60
22544;DHT22;11438;52.044;8.716;2024-03-22T09:18:05;16.20;99.70
22544;DHT22;11438;52.044;8.716;2024-03-22T09:20:30;16.20;99.20
22544;DHT22;11438;52.044;8.716;2024-03-22T09:22:56;16.30;99.00
22544;DHT22;11438;52.044;8.716;2024-03-22T09:25:23;16.30;98.80
22544;DHT22;11438;52.044;8.716;2024-03-22T09:27:48;16.30;98.50
22544;DHT22;11438;52.044;8.716;2024-03-22T09:30:14;16.30;98.50
22544;DHT22;11438;52.044;8.716;2024-03-22T09:32:40;16.30;98.40
22544;DHT22;11438;52.044;8.716;2024-03-22T09:35:06;16.40;98.40
22544;DHT22;11438;52.044;8.716;2024-03-22T09:37:31;16.40;98.30
22544;DHT22;11438;52.044;8.716;2024-03-22T09:39:58;16.40;98.10
22544;DHT22;11438;52.044;8.716;2024-03-22T09:42:24;16.40;98.00
22544;DHT22;11438;52.044;8.716;2024-03-22T09:44:51;16.40;97.90
22544;DHT22;11438;52.044;8.716;2024-03-22T09:47:18;16.40;97.90
22544;DHT22;11438;52.044;8.716;2024-03-22T09:49:44;16.50;97.80
22544;DHT22;11438;52.044;8.716;2024-03-22T09:52:14;16.50;97.70
22544;DHT22;11438;52.044;8.716;2024-03-22T09:54:44;16.50;96.80
22544;DHT22;11438;52.044;8.716;2024-03-22T09:57:15;16.50;96.80
22544;DHT22;11438;52.044;8.716;2024-03-22T09:59:45;16.40;96.70
22544;DHT22;11438;52.044;8.716;2024-03-22T10:02:12;16.40;96.50
22544;DHT22;11438;52.044;8.716;2024-03-22T10:04:43;16.40;96.70
22544;DHT22;11438;52.044;8.716;2024-03-22T10:07:09;16.50;96.50
22544;DHT22;11438;52.044;8.716;2024-03-22T10:09:39;16.50;96.70
22544;DHT22;11438;52.044;8.716;2024-03-22T10:12:04;16.50;96.60
22544;DHT22;11438;52.044;8.716;2024-03-22T10:14:30;16.50;96.90
22544;DHT22;11438;52.044;8.716;2024-03-22T10:16:56;16.50;96.60
22544;DHT22;11438;52.044;8.716;2024-03-22T10:19:25;16.50;96.20
22544;DHT22;11438;52.044;8.716;2024-03-22T10:22:03;16.60;96.50
22544;DHT22;11438;52.044;8.716;2024-03-22T10:24:29;16.60;96.40
22544;DHT22;11438;52.044;8.716;2024-03-22T10:26:55;16.60;96.30
22544;DHT22;11438;52.044;8.716;2024-03-22T10:29:21;16.60;96.20
22544;DHT22;11438;52.044;8.716;2024-03-22T10:31:54;16.70;96.40
22544;DHT22;11438;52.044;8.716;2024-03-22T10:34:24;16.70;96.10
22544;DHT22;11438;52.044;8.716;2024-03-22T10:36:50;16.70;96.20
22544;DHT22;11438;52.044;8.716;2024-03-22T10:39:19;16.70;96.20
22544;DHT22;11438;52.044;8.716;2024-03-22T10:41:48;16.80;96.40
22544;DHT22;11438;52.044;8.716;2024-03-22T10:44:14;16.80;96.30
22544;DHT22;11438;52.044;8.716;2024-03-22T10:46:45;16.80;96.20
22544;DHT22;11438;52.044;8.716;2024-03-22T10:49:16;16.80;95.80
22544;DHT22;11438;52.044;8.716;2024-03-22T10:51:44;16.80;96.10
22544;DHT22;11438;52.044;8.716;2024-03-22T10:54:13;16.80;96.20
22544;DHT22;11438;52.044;8.716;2024-03-22T10:56:42;16.80;96.20
22544;DHT22;11438;52.044;8.716;2024-03-22T10:59:08;16.80;96.00
22544;DHT22;11438;52.044;8.716;2024-03-22T11:01:34;16.80;95.90
22544;DHT22;11438;52.044;8.716;2024-03-22T11:04:05;16.90;96.00
22544;DHT22;11438;52.044;8.716;2024-03-22T11:06:37;16.90;96.10
22544;DHT22;11438;52.044;8.716;2024-03-22T11:09:03;16.90;96.00
22544;DHT22;11438;52.044;8.716;2024-03-22T11:11:29;16.90;96.00
22544;DHT22;11438;52.044;8.716;2024-03-22T11:13:56;16.90;96.10
22544;DHT22;11438;52.044;8.716;2024-03-22T11:16:22;16.90;96.00
22544;DHT22;11438;52.044;8.716;2024-03-22T11:18:47;16.90;96.10
22544;DHT22;11438;52.044;8.716;2024-03-22T11:21:17;16.90;96.30
22544;DHT22;11438;52.044;8.716;2024-03-22T11:23:45;16.90;95.90
22544;DHT22;11438;52.044;8.716;2024-03-22T11:26:11;16.90;96.00
22544;DHT22;11438;52.044;8.716;2024-03-22T11:28:38;16.90;96.00
22544;DHT22;11438;52.044;8.716;2024-03-22T11:31:03;16.90;96.00
22544;DHT22;11438;52.044;8.716;2024-03-22T11:33:30;16.90;96.20
22544;DHT22;11438;52.044;8.716;2024-03-22T11:35:58;16.90;96.10
22544;DHT22;11438;52.044;8.716;2024-03-22T11:38:26;16.90;96.10
22544;DHT22;11438;52.044;8.716;2024-03-22T11:40:52;16.90;96.30
22544;DHT22;11438;52.044;8.716;2024-03-22T11:43:19;16.90;96.40
22544;DHT22;11438;52.044;8.716;2024-03-22T11:45:45;16.90;96.50
22544;DHT22;11438;52.044;8.716;2024-03-22T11:48:11;16.90;96.60
22544;DHT22;11438;52.044;8.716;2024-03-22T11:50:39;16.90;96.60
22544;DHT22;11438;52.044;8.716;2024-03-22T11:53:05;16.90;96.40
22544;DHT22;11438;52.044;8.716;2024-03-22T11:55:31;16.90;96.30
22544;DHT22;11438;52.044;8.716;2024-03-22T11:57:58;16.90;96.40
22544;DHT22;11438;52.044;8.716;2024-03-22T12:00:23;16.90;96.40
22544;DHT22;11438;52.044;8.716;2024-03-22T12:02:51;16.90;96.50
22544;DHT22;11438;52.044;8.716;2024-03-22T12:05:17;16.80;96.50
22544;DHT22;11438;52.044;8.716;2024-03-22T12:07:44;16.80;96.80
22544;DHT22;11438;52.044;8.716;2024-03-22T12:10:10;16.80;96.80
22544;DHT22;11438;52.044;8.716;2024-03-22T12:12:36;16.70;97.00
22544;DHT22;11438;52.044;8.716;2024-03-22T12:15:03;16.70;97.30
22544;DHT22;11438;52.044;8.716;2024-03-22T12:17:28;16.70;97.50
22544;DHT22;11438;52.044;8.716;2024-03-22T12:19:55;16.70;97.60
22544;DHT22;11438;52.044;8.716;2024-03-22T12:22:21;16.60;97.70
22544;DHT22;11438;52.044;8.716;2024-03-22T12:24:47;16.60;97.80
22544;DHT22;11438;52.044;8.716;2024-03-22T12:27:12;16.60;98.00
22544;DHT22;11438;52.044;8.716;2024-03-22T12:29:38;16.50;98.10
22544;DHT22;11438;52.044;8.716;2024-03-22T12:32:04;16.50;98.30
22544;DHT22;11438;52.044;8.716;2024-03-22T12:34:30;16.50;98.40
22544;DHT22;11438;52.044;8.716;2024-03-22T12:36:58;16.50;98.60
22544;DHT22;11438;52.044;8.716;2024-03-22T12:39:24;16.40;98.90
22544;DHT22;11438;52.044;8.716;2024-03-22T12:41:49;16.40;99.00
22544;DHT22;11438;52.044;8.716;2024-03-22T12:44:15;16.40;99.10
22544;DHT22;11438;52.044;8.716;2024-03-22T12:46:40;16.30;99.30
22544;DHT22;11438;52.044;8.716;2024-03-22T12:49:10;16.30;99.30
22544;DHT22;11438;52.044;8.716;2024-03-22T12:51:36;16.30;99.20
22544;DHT22;11438;52.044;8.716;2024-03-22T12:54:02;16.30;99.20
22544;DHT22;11438;52.044;8.716;2024-03-22T12:56:28;16.30;99.30
22544;DHT22;11438;52.044;8.716;2024-03-22T12:58:53;16.30;99.30
22544;DHT22;11438;52.044;8.716;2024-03-22T13:01:19;16.30;99.30
22544;DHT22;11438;52.044;8.716;2024-03-22T13:03:45;16.30;99.20
22544;DHT22;11438;52.044;8.716;2024-03-22T13:06:10;16.30;99.20
22544;DHT22;11438;52.044;8.716;2024-03-22T13:08:36;16.30;99.10
22544;DHT22;11438;52.044;8.716;2024-03-22T13:11:01;16.30;99.10
22544;DHT22;11438;52.044;8.716;2024-03-22T13:13:27;16.30;98.90
22544;DHT22;11438;52.044;8.716;2024-03-22T13:15:52;16.30;98.90
22544;DHT22;11438;52.044;8.716;2024-03-22T13:18:21;16.30;98.90
22544;DHT22;11438;52.044;8.716;2024-03-22T13:20:47;16.20;98.90
22544;DHT22;11438;52.044;8.716;2024-03-22T13:23:12;16.20;98.90
22544;DHT22;11438;52.044;8.716;2024-03-22T13:25:38;16.20;98.90
22544;DHT22;11438;52.044;8.716;2024-03-22T13:28:04;16.20;99.00
22544;DHT22;11438;52.044;8.716;2024-03-22T13:30:32;16.20;99.00
22544;DHT22;11438;52.044;8.716;2024-03-22T13:33:00;16.20;99.00
22544;DHT22;11438;52.044;8.716;2024-03-22T13:35:26;16.20;99.10
22544;DHT22;11438;52.044;8.716;2024-03-22T13:37:52;16.20;99.20
22544;DHT22;11438;52.044;8.716;2024-03-22T13:40:17;16.10;99.20
22544;DHT22;11438;52.044;8.716;2024-03-22T13:42:43;16.20;99.30
22544;DHT22;11438;52.044;8.716;2024-03-22T13:45:08;16.10;99.30
22544;DHT22;11438;52.044;8.716;2024-03-22T13:47:34;16.10;99.30
22544;DHT22;11438;52.044;8.716;2024-03-22T13:50:04;16.10;99.30
22544;DHT22;11438;52.044;8.716;2024-03-22T13:52:29;16.00;99.70
22544;DHT22;11438;52.044;8.716;2024-03-22T13:54:55;16.00;99.70
22544;DHT22;11438;52.044;8.716;2024-03-22T13:57:21;16.00;99.80
22544;DHT22;11438;52.044;8.716;2024-03-22T13:59:46;15.90;99.90
22544;DHT22;11438;52.044;8.716;2024-03-22T14:02:12;15.90;99.90
22544;DHT22;11438;52.044;8.716;2024-03-22T14:04:38;15.90;99.90
22544;DHT22;11438;52.044;8.716;2024-03-22T14:07:03;15.80;99.90
22544;DHT22;11438;52.044;8.716;2024-03-22T14:09:30;15.80;99.90
22544;DHT22;11438;52.044;8.716;2024-03-22T14:11:56;15.80;99.90
22544;DHT22;11438;52.044;8.716;2024-03-22T14:14:22;15.80;99.90
22544;DHT22;11438;52.044;8.716;2024-03-22T14:16:49;15.80;99.90
22544;DHT22;11438;52.044;8.716;2024-03-22T14:19:14;15.70;99.90
22544;DHT22;11438;52.044;8.716;2024-03-22T14:21:41;15.70;99.90
22544;DHT22;11438;52.044;8.716;2024-03-22T14:24:06;15.70;99.90
22544;DHT22;11438;52.044;8.716;2024-03-22T14:26:33;15.70;99.90
22544;DHT22;11438;52.044;8.716;2024-03-22T14:28:58;15.60;99.90
22544;DHT22;11438;52.044;8.716;2024-03-22T14:31:24;15.60;99.90
22544;DHT22;11438;52.044;8.716;2024-03-22T14:33:49;15.50;99.90
22544;DHT22;11438;52.044;8.716;2024-03-22T14:36:15;15.50;99.90
22544;DHT22;11438;52.044;8.716;2024-03-22T14:38:40;15.50;99.90
22544;DHT22;11438;52.044;8.716;2024-03-22T14:41:06;15.50;99.90
22544;DHT22;11438;52.044;8.716;2024-03-22T14:43:31;15.40;99.90
22544;DHT22;11438;52.044;8.716;2024-03-22T14:46:00;15.50;99.90
22544;DHT22;11438;52.044;8.716;2024-03-22T14:48:26;15.40;99.90
22544;DHT22;11438;52.044;8.716;2024-03-22T14:50:51;15.40;99.90
22544;DHT22;11438;52.044;8.716;2024-03-22T14:53:19;15.40;99.90
22544;DHT22;11438;52.044;8.716;2024-03-22T14:55:55;15.50;99.90
22544;DHT22;11438;52.044;8.716;2024-03-22T14:58:26;15.50;99.90
22544;DHT22;11438;52.044;8.716;2024-03-22T15:00:57;15.50;99.90
22544;DHT22;11438;52.044;8.716;2024-03-22T15:03:23;15.40;99.90
22544;DHT22;11438;52.044;8.716;2024-03-22T15:05:50;15.40;99.90
22544;DHT22;11438;52.044;8.716;2024-03-22T15:08:17;15.40;99.90
22544;DHT22;11438;52.044;8.716;2024-03-22T15:10:42;15.40;99.90
22544;DHT22;11438;52.044;8.716;2024-03-22T15:13:09;15.40;99.90
22544;DHT22;11438;52.044;8.716;2024-03-22T15:15:34;15.40;99.90
22544;DHT22;11438;52.044;8.716;2024-03-22T15:18:00;15.30;99.90
22544;DHT22;11438;52.044;8.716;2024-03-22T15:20:25;15.30;99.90
22544;DHT22;11438;52.044;8.716;2024-03-22T15:22:53;15.30;99.90